Time;durP1;ratioP1;P1;durP2;ratioP2;P2;SDS_P1;SDS_P2;PMS_P1;PMS_P2;Temp;Humidity;BMP_temperature;BMP_pressure;BME280_temperature;BME280_humidity;BME280_pressure;Samples;Min_cycle;Max_cycle;Signal;HPM_P1;HPM_P2
2023/09/07 00:00:48;;;;;;;0.00;0.00;;;;;;;17.10;100.00;101179.88;4988408;28;20026;-66
2023/09/07 00:03:14;;;;;;;0.00;0.00;;;;;;;17.08;100.00;101183.69;4989168;28;20041;-66
2023/09/07 00:05:40;;;;;;;0.00;0.00;;;;;;;17.05;100.00;101182.19;4990514;28;20046;-66
2023/09/07 00:08:05;;;;;;;0.57;0.00;;;;;;;17.07;100.00;101180.22;4989600;28;20345;-66
2023/09/07 00:10:35;;;;;;;0.00;0.00;;;;;;;17.08;100.00;101181.03;4990248;28;20037;-66
2023/09/07 00:13:02;;;;;;;0.00;0.00;;;;;;;17.12;100.00;101184.97;4990894;28;20084;-66
2023/09/07 00:15:28;;;;;;;0.00;0.00;;;;;;;17.16;100.00;101178.38;4987280;28;20471;-66
2023/09/07 00:17:53;;;;;;;0.00;0.00;;;;;;;17.16;100.00;101187.09;4990903;28;20403;-66
2023/09/07 00:20:21;;;;;;;0.00;0.00;;;;;;;17.26;100.00;101189.53;4987540;28;20058;-66
2023/09/07 00:22:47;;;;;;;0.05;0.00;;;;;;;17.62;96.04;101186.41;4988430;28;20058;-66
2023/09/07 00:25:12;;;;;;;0.00;0.00;;;;;;;17.77;95.81;101182.91;4990680;28;20069;-66
2023/09/07 00:27:39;;;;;;;0.00;0.00;;;;;;;17.80;94.25;101187.00;4988529;28;20058;-66
2023/09/07 00:30:05;;;;;;;0.43;0.00;;;;;;;17.88;95.33;101189.59;4988483;28;20077;-66
2023/09/07 00:32:33;;;;;;;0.03;0.00;;;;;;;17.76;96.21;101190.97;4989794;28;20027;-66
2023/09/07 00:34:58;;;;;;;0.00;0.00;;;;;;;17.74;96.35;101188.53;4990885;28;20121;-66
2023/09/07 00:37:23;;;;;;;0.10;0.00;;;;;;;17.69;96.75;101196.13;4988605;28;20052;-66
2023/09/07 00:39:49;;;;;;;0.13;0.00;;;;;;;17.69;96.25;101185.59;4989998;28;20030;-66
2023/09/07 00:42:14;;;;;;;0.20;0.00;;;;;;;17.58;96.71;101184.13;4990448;28;20042;-66
2023/09/07 00:44:39;;;;;;;0.00;0.00;;;;;;;17.51;98.23;101183.16;4984667;28;20046;-67
2023/09/07 00:47:05;;;;;;;0.13;0.08;;;;;;;17.45;98.10;101183.88;4990920;28;20550;-66
2023/09/07 00:49:31;;;;;;;0.08;0.00;;;;;;;17.40;98.85;101170.41;4989609;28;20128;-66
2023/09/07 00:51:57;;;;;;;0.10;0.00;;;;;;;17.43;99.34;101177.13;4988680;28;20030;-66
2023/09/07 00:54:23;;;;;;;0.20;0.00;;;;;;;17.36;99.23;101169.09;4985422;28;20498;-66
2023/09/07 00:56:48;;;;;;;0.00;0.00;;;;;;;17.32;99.30;101167.81;4986818;28;20038;-66
2023/09/07 00:59:14;;;;;;;0.35;0.03;;;;;;;17.57;93.91;101166.66;4990368;28;20046;-66
2023/09/07 01:01:40;;;;;;;0.00;0.00;;;;;;;17.81;93.75;101165.75;4991250;28;20096;-67
2023/09/07 01:04:06;;;;;;;0.10;0.00;;;;;;;18.56;86.03;101164.97;4990453;28;20076;-67
2023/09/07 01:07:11;;;;;;;1.58;0.00;;;;;;;19.18;83.60;101160.19;4989196;28;20070;-67
2023/09/07 01:09:40;;;;;;;0.00;0.00;;;;;;;19.36;81.46;101164.28;4988218;28;20376;-66
2023/09/07 01:12:10;;;;;;;0.00;0.00;;;;;;;19.30;81.10;101160.56;4990585;28;20037;-66
2023/09/07 01:14:36;;;;;;;0.10;0.05;;;;;;;19.15;82.51;101157.09;4987863;28;20588;-66
2023/09/07 01:17:03;;;;;;;0.00;0.00;;;;;;;19.00;85.99;101157.09;4984730;28;20038;-67
2023/09/07 01:19:28;;;;;;;0.08;0.00;;;;;;;18.89;83.90;101158.41;4984095;28;20038;-66
2023/09/07 01:21:54;;;;;;;0.28;0.28;;;;;;;18.86;86.45;101153.47;4987053;28;20156;-67
2023/09/07 01:24:22;;;;;;;0.30;0.00;;;;;;;18.82;85.54;101156.66;4985744;28;20458;-67
2023/09/07 01:26:49;;;;;;;0.17;0.00;;;;;;;18.67;87.57;101153.19;4989588;28;20488;-66
2023/09/07 01:29:16;;;;;;;0.00;0.00;;;;;;;18.69;83.58;101152.00;4986801;28;20046;-67
2023/09/07 01:31:42;;;;;;;0.38;0.00;;;;;;;18.88;83.51;101150.66;4989568;28;20038;-66
2023/09/07 01:34:08;;;;;;;0.00;0.00;;;;;;;19.04;81.54;101149.63;4990845;28;20404;-66
2023/09/07 01:36:34;;;;;;;0.52;0.00;;;;;;;19.15;80.74;101152.63;4991699;28;20038;-67
2023/09/07 01:39:00;;;;;;;0.03;0.00;;;;;;;19.23;80.51;101149.91;4992469;28;20039;-66
2023/09/07 01:41:25;;;;;;;0.20;0.00;;;;;;;19.37;80.31;101150.88;4993477;28;20038;-66
2023/09/07 01:43:51;;;;;;;0.57;0.30;;;;;;;19.44;77.91;101146.47;4992641;28;20089;-67
2023/09/07 01:46:16;;;;;;;0.00;0.00;;;;;;;19.57;76.43;101147.66;4992156;28;20052;-67
2023/09/07 01:48:42;;;;;;;0.15;0.00;;;;;;;19.57;78.46;101140.56;4992849;28;20034;-66
2023/09/07 01:51:08;;;;;;;1.20;0.00;;;;;;;19.53;77.34;101134.00;4991936;28;20041;-66
2023/09/07 01:53:33;;;;;;;0.00;0.00;;;;;;;19.48;77.33;101136.34;4990274;28;20022;-66
2023/09/07 01:55:59;;;;;;;0.20;0.00;;;;;;;19.42;78.16;101127.34;4992719;28;20490;-66
2023/09/07 01:58:25;;;;;;;0.10;0.00;;;;;;;19.43;78.69;101134.25;4990422;28;20369;-67
2023/09/07 02:00:52;;;;;;;0.20;0.00;;;;;;;19.35;78.57;101129.13;4990819;28;20042;-66
2023/09/07 02:03:17;;;;;;;0.10;0.00;;;;;;;19.28;79.41;101124.75;4991481;28;20088;-67
2023/09/07 02:05:45;;;;;;;0.32;0.00;;;;;;;19.29;77.80;101124.56;4993073;28;20038;-66
2023/09/07 02:08:11;;;;;;;0.15;0.00;;;;;;;19.30;78.19;101120.09;4989879;28;20478;-67
2023/09/07 02:10:37;;;;;;;0.00;0.00;;;;;;;19.28;79.06;101122.94;4992319;28;20052;-66
2023/09/07 02:13:03;;;;;;;0.00;0.00;;;;;;;19.29;78.20;101126.41;4992502;28;20102;-66
2023/09/07 02:15:29;;;;;;;0.00;0.00;;;;;;;19.30;77.52;101122.75;4990285;28;20034;-67
2023/09/07 02:17:54;;;;;;;0.00;0.00;;;;;;;19.25;78.08;101119.84;4992820;28;20399;-66
2023/09/07 02:20:20;;;;;;;0.10;0.00;;;;;;;19.20;78.67;101125.66;4990394;28;20439;-67
2023/09/07 02:22:45;;;;;;;0.10;0.00;;;;;;;19.09;78.36;101116.41;4991252;28;20066;-66
2023/09/07 02:25:11;;;;;;;0.20;0.00;;;;;;;18.99;79.28;101120.31;4990463;28;20026;-67
2023/09/07 02:27:36;;;;;;;0.10;0.00;;;;;;;18.94;79.26;101114.75;4991622;28;20468;-67
2023/09/07 02:30:05;;;;;;;0.00;0.00;;;;;;;18.97;79.83;101112.56;4990982;28;20048;-66
2023/09/07 02:32:31;;;;;;;0.13;0.00;;;;;;;19.03;78.84;101116.31;4988833;28;20030;-66
2023/09/07 02:34:57;;;;;;;0.10;0.00;;;;;;;19.05;78.78;101106.38;4990582;28;20178;-67
2023/09/07 02:37:23;;;;;;;0.00;0.00;;;;;;;19.03;78.92;101105.75;4990872;28;20129;-66
2023/09/07 02:39:48;;;;;;;0.22;0.10;;;;;;;18.96;78.90;101104.84;4991734;28;20073;-67
2023/09/07 02:42:14;;;;;;;0.03;0.00;;;;;;;18.96;79.05;101099.56;4992128;28;20057;-67
2023/09/07 02:44:39;;;;;;;0.00;0.00;;;;;;;19.00;79.51;101100.84;4990682;28;20026;-66
2023/09/07 02:47:05;;;;;;;0.00;0.00;;;;;;;18.97;79.50;101093.28;4991703;28;20085;-67
2023/09/07 02:49:30;;;;;;;0.00;0.00;;;;;;;18.92;78.94;101096.47;4989669;28;20038;-67
2023/09/07 02:51:56;;;;;;;0.00;0.00;;;;;;;18.87;79.23;101089.13;4991524;28;20406;-66
2023/09/07 02:54:23;;;;;;;0.00;0.00;;;;;;;18.84;78.96;101086.84;4988853;28;20464;-67
2023/09/07 02:56:48;;;;;;;0.10;0.00;;;;;;;18.80;79.54;101084.75;4992373;28;20124;-66
2023/09/07 02:59:14;;;;;;;0.00;0.00;;;;;;;18.78;79.86;101084.13;4992427;28;20169;-67
2023/09/07 03:01:39;;;;;;;0.00;0.00;;;;;;;18.81;78.81;101081.94;4985615;28;20100;-67
2023/09/07 03:04:05;;;;;;;0.08;0.00;;;;;;;18.95;78.57;101076.78;4990870;28;20513;-66
2023/09/07 03:06:31;;;;;;;0.00;0.00;;;;;;;18.95;79.04;101079.44;4991374;28;20034;-66
2023/09/07 03:08:57;;;;;;;0.10;0.00;;;;;;;18.96;78.90;101083.72;4992718;28;20113;-66
2023/09/07 03:11:22;;;;;;;0.28;0.10;;;;;;;18.94;78.85;101080.44;4984815;28;20049;-67
2023/09/07 03:13:48;;;;;;;0.10;0.00;;;;;;;18.90;78.53;101083.44;4991569;28;20026;-67
2023/09/07 03:16:13;;;;;;;0.10;0.00;;;;;;;18.89;80.50;101076.56;4991590;28;20035;-67
2023/09/07 03:18:39;;;;;;;0.20;0.10;;;;;;;18.79;82.90;101085.75;4987905;28;20480;-66
2023/09/07 03:21:04;;;;;;;0.10;0.00;;;;;;;18.52;84.45;101087.97;4990964;28;20562;-66
2023/09/07 03:23:31;;;;;;;0.00;0.00;;;;;;;18.29;86.94;101086.44;4988343;28;20038;-67
2023/09/07 03:25:58;;;;;;;0.10;0.10;;;;;;;18.05;88.21;101080.38;4990485;28;20411;-67
2023/09/07 03:28:25;;;;;;;0.20;0.00;;;;;;;17.87;89.34;101088.59;4990739;28;20129;-67
2023/09/07 03:30:51;;;;;;;0.10;0.00;;;;;;;17.71;90.09;101085.28;4989907;28;20035;-67
2023/09/07 03:33:16;;;;;;;0.22;0.00;;;;;;;17.56;91.29;101096.53;4990772;28;20034;-66
2023/09/07 03:35:42;;;;;;;0.28;0.00;;;;;;;17.44;92.30;101089.22;4992103;28;20030;-66
2023/09/07 03:38:08;;;;;;;0.10;0.00;;;;;;;17.34;93.08;101099.97;4991175;28;20038;-66
2023/09/07 03:40:33;;;;;;;0.17;0.00;;;;;;;17.22;93.70;101093.44;4986600;28;20042;-66
2023/09/07 03:42:59;;;;;;;0.28;0.00;;;;;;;17.13;94.37;101087.41;4991859;28;20042;-67
2023/09/07 03:45:24;;;;;;;0.13;0.10;;;;;;;17.06;94.33;101085.63;4988742;28;20027;-66
2023/09/07 03:47:50;;;;;;;0.70;0.13;;;;;;;17.01;95.23;101093.22;4991241;28;20495;-67
2023/09/07 03:50:15;;;;;;;0.13;0.00;;;;;;;16.96;95.55;101095.56;4992532;28;20472;-67
2023/09/07 03:52:41;;;;;;;0.03;0.00;;;;;;;16.95;96.11;101086.03;4989949;28;20037;-67
2023/09/07 03:55:07;;;;;;;0.00;0.00;;;;;;;16.89;96.58;101085.72;4988808;28;20062;-67
2023/09/07 03:57:32;;;;;;;0.00;0.00;;;;;;;16.84;96.88;101079.31;4991389;28;20470;-67
2023/09/07 03:59:58;;;;;;;0.17;0.00;;;;;;;16.77;97.10;101078.34;4990161;28;20080;-67
2023/09/07 04:02:24;;;;;;;0.10;0.05;;;;;;;16.70;97.57;101082.63;4988422;28;20122;-67
2023/09/07 04:04:55;;;;;;;0.00;0.00;;;;;;;16.63;98.47;101082.47;4989345;28;20046;-66
2023/09/07 04:07:20;;;;;;;0.00;0.00;;;;;;;16.60;97.39;101078.34;4989790;28;20056;-66
2023/09/07 04:09:46;;;;;;;0.17;0.00;;;;;;;16.63;97.51;101079.84;4989997;28;20125;-66
2023/09/07 04:12:12;;;;;;;0.10;0.03;;;;;;;16.65;97.52;101085.78;4987330;28;20121;-66
2023/09/07 04:14:38;;;;;;;0.22;0.00;;;;;;;16.70;97.63;101086.09;4988136;28;20387;-67
2023/09/07 04:17:04;;;;;;;0.15;0.00;;;;;;;16.64;97.75;101083.28;4989645;28;20092;-66
2023/09/07 04:19:30;;;;;;;0.00;0.00;;;;;;;16.72;96.47;101086.75;4989560;28;20418;-67
2023/09/07 04:21:57;;;;;;;0.03;0.00;;;;;;;17.15;92.70;101079.31;4985297;28;20089;-66
2023/09/07 04:24:22;;;;;;;0.10;0.00;;;;;;;17.43;89.22;101079.69;4988085;28;20040;-66
2023/09/07 04:26:49;;;;;;;0.00;0.00;;;;;;;17.51;90.66;101077.78;4989531;28;20034;-67
2023/09/07 04:29:14;;;;;;;0.20;0.10;;;;;;;17.43;91.59;101083.13;4987161;28;20041;-66
2023/09/07 04:31:39;;;;;;;0.10;0.00;;;;;;;17.28;93.68;101086.66;4988879;28;20466;-66
2023/09/07 04:34:05;;;;;;;0.10;0.00;;;;;;;17.05;94.42;101078.72;4990733;28;20116;-66
2023/09/07 04:36:30;;;;;;;0.00;0.00;;;;;;;17.04;93.73;101085.78;4988825;28;20049;-66
2023/09/07 04:38:56;;;;;;;0.00;0.00;;;;;;;17.23;91.58;101077.47;4987822;28;20073;-67
2023/09/07 04:41:21;;;;;;;0.10;0.00;;;;;;;17.31;91.91;101083.69;4987777;28;20038;-67
2023/09/07 04:43:47;;;;;;;0.03;0.00;;;;;;;17.17;93.16;101090.50;4989325;28;20038;-67
2023/09/07 04:46:13;;;;;;;0.00;0.00;;;;;;;17.24;91.33;101094.09;4989634;28;20057;-67
2023/09/07 04:48:41;;;;;;;0.40;0.00;;;;;;;17.28;91.87;101090.13;4989380;28;20030;-66
2023/09/07 04:51:07;;;;;;;0.00;0.00;;;;;;;17.28;91.54;101087.50;4988406;28;20030;-67
2023/09/07 04:53:37;;;;;;;0.00;0.00;;;;;;;17.24;92.65;101094.91;4984910;28;20033;-67
2023/09/07 04:56:05;;;;;;;0.45;0.00;;;;;;;17.15;94.31;101100.38;4989475;28;20046;-66
2023/09/07 04:58:31;;;;;;;0.10;0.00;;;;;;;16.99;95.36;101098.66;4987283;28;20116;-66
2023/09/07 05:01:08;;;;;;;0.08;0.00;;;;;;;16.87;95.64;101103.47;4989019;28;20073;-67
2023/09/07 05:03:34;;;;;;;0.00;0.00;;;;;;;16.84;95.94;101089.84;4986031;28;20058;-67
2023/09/07 05:06:00;;;;;;;0.30;0.03;;;;;;;16.79;96.94;101100.88;4988063;28;20042;-67
2023/09/07 05:08:26;;;;;;;0.00;0.00;;;;;;;16.76;97.44;101103.84;4984693;28;20034;-67
2023/09/07 05:10:56;;;;;;;0.10;0.00;;;;;;;16.72;98.16;101102.53;4988636;28;20027;-66
2023/09/07 05:13:22;;;;;;;0.20;0.00;;;;;;;16.71;98.73;101102.69;4988095;28;20584;-67
2023/09/07 05:15:51;;;;;;;0.20;0.00;;;;;;;16.69;98.86;101102.03;4987688;28;20030;-66
2023/09/07 05:18:18;;;;;;;0.13;0.00;;;;;;;16.68;97.70;101095.97;4988344;28;20318;-67
2023/09/07 05:20:51;;;;;;;0.00;0.00;;;;;;;16.79;98.24;101106.13;4987562;28;20042;-67
2023/09/07 05:23:19;;;;;;;0.10;0.00;;;;;;;16.85;98.27;101108.09;4985113;28;20502;-67
2023/09/07 05:25:54;;;;;;;0.00;0.00;;;;;;;16.92;98.81;101114.31;4986139;28;20034;-67
2023/09/07 05:28:20;;;;;;;;;;;;;;;16.94;99.02;101116.78;4984681;28;20030;-66
2023/09/07 05:30:46;;;;;;;0.00;0.00;;;;;;;16.94;97.89;101114.16;4986048;28;19922;-67
2023/09/07 05:33:13;;;;;;;0.10;0.00;;;;;;;17.06;97.59;101107.50;4989024;28;20029;-67
2023/09/07 05:35:39;;;;;;;0.03;0.00;;;;;;;17.16;97.99;101116.00;4986663;28;20034;-67
2023/09/07 05:38:05;;;;;;;0.20;0.00;;;;;;;17.23;97.64;101119.59;4981479;28;20026;-67
2023/09/07 05:40:37;;;;;;;0.08;0.00;;;;;;;17.36;94.84;101116.44;4985837;28;20030;-67
2023/09/07 05:43:03;;;;;;;0.00;0.00;;;;;;;17.69;91.96;101116.25;4988893;28;20037;-66
2023/09/07 05:45:31;;;;;;;0.22;0.00;;;;;;;17.99;89.32;101117.97;4988059;28;20032;-67
2023/09/07 05:47:56;;;;;;;0.00;0.00;;;;;;;18.13;88.19;101119.84;4985193;28;20376;-67
2023/09/07 05:50:22;;;;;;;0.10;0.00;;;;;;;18.33;88.06;101124.63;4989977;28;20117;-67
2023/09/07 05:52:47;;;;;;;0.10;0.00;;;;;;;18.39;86.09;101116.00;4990462;28;20468;-67
2023/09/07 05:55:13;;;;;;;0.22;0.00;;;;;;;18.53;84.77;101120.47;4988602;28;20046;-67
2023/09/07 05:57:38;;;;;;;0.47;0.00;;;;;;;18.66;83.55;101118.06;4987313;28;20022;-67
2023/09/07 06:00:05;;;;;;;0.22;0.00;;;;;;;18.69;83.02;101122.97;4988882;28;20034;-67
2023/09/07 06:02:30;;;;;;;0.20;0.00;;;;;;;18.76;81.59;101125.72;4988928;28;20037;-67
2023/09/07 06:04:56;;;;;;;0.10;0.10;;;;;;;18.78;82.62;101137.72;4987118;28;20125;-67
2023/09/07 06:07:21;;;;;;;0.08;0.00;;;;;;;18.82;82.28;101125.81;4988426;28;20041;-67
2023/09/07 06:09:47;;;;;;;0.00;0.00;;;;;;;18.86;82.27;101129.72;4988419;28;20046;-67
2023/09/07 06:12:13;;;;;;;0.00;0.00;;;;;;;18.90;82.20;101128.31;4985866;28;20030;-67
2023/09/07 06:14:38;;;;;;;0.20;0.10;;;;;;;18.99;80.64;101121.13;4987032;28;20049;-67
2023/09/07 06:17:04;;;;;;;0.00;0.00;;;;;;;19.11;80.67;101118.84;4989403;28;20464;-67
2023/09/07 06:19:30;;;;;;;1.08;0.00;;;;;;;19.21;80.47;101122.03;4993061;28;20401;-67
2023/09/07 06:21:56;;;;;;;0.10;0.03;;;;;;;19.28;80.78;101120.28;4992494;28;20451;-67
2023/09/07 06:24:21;;;;;;;0.00;0.00;;;;;;;19.34;81.53;101126.66;4991173;28;20047;-67
2023/09/07 06:26:48;;;;;;;0.00;0.00;;;;;;;19.46;80.31;101131.25;4985956;28;20031;-67
2023/09/07 06:29:13;;;;;;;0.13;0.00;;;;;;;19.55;82.10;101127.53;4991780;28;20041;-67
2023/09/07 06:31:39;;;;;;;0.00;0.00;;;;;;;19.64;82.07;101137.97;4988328;28;20035;-67
2023/09/07 06:34:04;;;;;;;0.10;0.00;;;;;;;19.74;81.67;101126.09;4991887;28;20429;-67
2023/09/07 06:36:30;;;;;;;0.10;0.00;;;;;;;19.92;79.06;101130.94;4991034;28;20503;-67
2023/09/07 06:38:56;;;;;;;0.10;0.00;;;;;;;20.07;80.51;101133.50;4988995;28;20065;-67
2023/09/07 06:41:21;;;;;;;0.17;0.00;;;;;;;20.16;78.81;101141.13;4990101;28;20142;-67
2023/09/07 06:43:47;;;;;;;0.08;0.00;;;;;;;20.28;79.02;101143.25;4991066;28;20042;-64
2023/09/07 06:46:12;;;;;;;0.17;0.10;;;;;;;20.31;77.36;101137.59;4991172;28;20045;-65
2023/09/07 06:48:37;;;;;;;0.20;0.00;;;;;;;20.42;77.90;101139.72;4990377;28;20117;-64
2023/09/07 06:51:04;;;;;;;0.10;0.00;;;;;;;20.45;80.09;101142.78;4992266;28;20118;-64
2023/09/07 06:53:30;;;;;;;0.10;0.00;;;;;;;20.46;80.90;101147.06;4989175;28;20076;-65
2023/09/07 06:56:00;;;;;;;0.00;0.00;;;;;;;20.53;81.56;101147.94;4992792;28;20129;-63
2023/09/07 06:58:25;;;;;;;0.00;0.00;;;;;;;20.64;83.35;101149.25;4992843;28;20030;-63
2023/09/07 07:00:51;;;;;;;0.10;0.00;;;;;;;20.71;83.37;101144.81;4992625;28;20041;-63
2023/09/07 07:03:16;;;;;;;0.10;0.00;;;;;;;20.74;84.61;101143.63;4991761;28;20036;-63
2023/09/07 07:05:42;;;;;;;0.05;0.00;;;;;;;20.83;82.22;101140.59;4992617;28;20057;-61
2023/09/07 07:08:07;;;;;;;0.10;0.00;;;;;;;21.06;81.02;101144.78;4992722;28;20033;-63
2023/09/07 07:10:33;;;;;;;0.43;0.00;;;;;;;21.21;81.44;101140.22;4990778;28;20399;-62
2023/09/07 07:12:59;;;;;;;0.00;0.00;;;;;;;21.29;80.54;101140.00;4991948;28;20030;-62
2023/09/07 07:15:25;;;;;;;0.05;0.00;;;;;;;21.38;80.97;101144.13;4991885;28;20046;-62
2023/09/07 07:17:50;;;;;;;0.52;0.00;;;;;;;21.49;80.95;101143.56;4992167;28;20030;-63
2023/09/07 07:20:16;;;;;;;0.00;0.00;;;;;;;21.59;80.53;101143.19;4991420;28;20042;-62
2023/09/07 07:22:41;;;;;;;0.00;0.00;;;;;;;21.68;80.65;101152.59;4993370;28;20151;-63
2023/09/07 07:25:07;;;;;;;0.00;0.00;;;;;;;21.78;80.46;101149.53;4989072;28;20392;-63
2023/09/07 07:27:32;;;;;;;0.38;0.00;;;;;;;21.92;80.66;101151.19;4990527;28;20125;-63
2023/09/07 07:29:58;;;;;;;0.15;0.10;;;;;;;22.02;80.96;101148.16;4988120;28;20057;-63
2023/09/07 07:32:23;;;;;;;0.15;0.00;;;;;;;22.10;80.47;101151.44;4987481;28;20030;-63
2023/09/07 07:34:49;;;;;;;0.10;0.00;;;;;;;22.24;80.10;101148.78;5003040;28;20401;-63
2023/09/07 07:37:15;;;;;;;0.20;0.10;;;;;;;22.33;79.93;101156.31;4989332;28;20120;-63
2023/09/07 07:39:40;;;;;;;0.10;0.00;;;;;;;22.49;76.26;101155.09;4991623;28;20064;-63
2023/09/07 07:42:06;;;;;;;0.00;0.00;;;;;;;22.69;79.61;101161.19;4992110;28;20030;-63
2023/09/07 07:44:32;;;;;;;0.00;0.00;;;;;;;22.75;78.83;101163.00;4991746;28;20026;-63
2023/09/07 07:46:57;;;;;;;0.20;0.00;;;;;;;22.79;77.75;101163.44;4992032;28;20080;-63
2023/09/07 07:49:22;;;;;;;0.00;0.00;;;;;;;22.88;77.36;101161.38;4985910;28;20632;-63
2023/09/07 07:51:48;;;;;;;0.10;0.00;;;;;;;23.02;77.29;101163.81;4990156;28;20038;-63
2023/09/07 07:54:13;;;;;;;0.00;0.00;;;;;;;23.12;75.70;101163.38;4990833;28;20111;-63
2023/09/07 07:56:39;;;;;;;0.00;0.00;;;;;;;23.17;76.31;101163.53;4989723;28;20030;-63
2023/09/07 07:59:05;;;;;;;0.25;0.05;;;;;;;23.27;76.07;101163.91;4991911;28;20041;-63
2023/09/07 08:01:30;;;;;;;0.00;0.00;;;;;;;23.39;76.27;101156.91;4988578;28;20034;-63
2023/09/07 08:03:56;;;;;;;0.10;0.00;;;;;;;23.43;75.50;101158.09;4990595;28;20498;-63
2023/09/07 08:06:23;;;;;;;0.22;0.00;;;;;;;23.47;75.14;101159.31;4979447;28;20377;-63
2023/09/07 08:08:48;;;;;;;0.08;0.00;;;;;;;23.53;74.37;101162.16;4990187;28;20044;-63
2023/09/07 08:11:14;;;;;;;0.00;0.00;;;;;;;23.57;71.05;101158.91;4990976;28;20048;-63
2023/09/07 08:13:40;;;;;;;0.20;0.00;;;;;;;23.68;73.07;101160.03;4985488;28;20345;-63
2023/09/07 08:16:06;;;;;;;0.00;0.00;;;;;;;23.75;73.20;101166.13;4987346;28;20037;-63
2023/09/07 08:18:34;;;;;;;0.13;0.00;;;;;;;23.88;73.22;101159.91;4989795;28;20113;-63
2023/09/07 08:21:00;;;;;;;0.10;0.00;;;;;;;23.97;71.99;101163.97;4988385;28;20052;-63
2023/09/07 08:23:25;;;;;;;0.00;0.00;;;;;;;24.03;72.38;101158.59;4987842;28;20030;-63
2023/09/07 08:25:52;;;;;;;0.00;0.00;;;;;;;24.02;71.08;101156.97;4991066;28;20070;-63
2023/09/07 08:28:18;;;;;;;0.10;0.00;;;;;;;24.04;71.35;101156.75;4982750;28;20031;-64
2023/09/07 08:30:44;;;;;;;1.20;0.00;;;;;;;24.10;71.63;101156.66;4989067;28;20042;-63
2023/09/07 08:33:10;;;;;;;0.00;0.00;;;;;;;24.12;70.92;101149.28;4990685;28;20041;-63
2023/09/07 08:35:37;;;;;;;1.10;0.00;;;;;;;24.16;70.91;101147.81;4986855;28;20057;-63
2023/09/07 08:38:05;;;;;;;0.00;0.00;;;;;;;24.37;70.89;101148.50;4988306;28;20026;-63
2023/09/07 08:40:34;;;;;;;0.68;0.00;;;;;;;24.50;69.32;101143.06;4988894;28;20034;-63
2023/09/07 08:43:03;;;;;;;0.10;0.00;;;;;;;24.51;69.09;101143.88;4987754;28;20045;-63
2023/09/07 08:45:33;;;;;;;0.08;0.00;;;;;;;24.41;70.00;101149.69;4986247;28;20081;-63
2023/09/07 08:47:59;;;;;;;0.22;0.00;;;;;;;24.28;69.97;101147.16;4989869;28;20042;-63
2023/09/07 08:50:25;;;;;;;0.30;0.05;;;;;;;24.27;70.13;101149.00;4987746;28;20041;-63
2023/09/07 08:52:53;;;;;;;0.10;0.00;;;;;;;24.31;69.93;101147.53;4987685;28;20401;-63
2023/09/07 08:55:19;;;;;;;0.10;0.00;;;;;;;24.40;68.44;101158.72;4989370;28;20108;-63
2023/09/07 08:57:45;;;;;;;0.30;0.00;;;;;;;24.35;69.24;101150.56;5001353;28;20492;-63
2023/09/07 09:00:16;;;;;;;0.00;0.00;;;;;;;24.21;69.89;101154.34;4988544;28;20117;-63
2023/09/07 09:02:42;;;;;;;0.30;0.00;;;;;;;24.16;70.56;101147.81;4988526;28;20839;-63
2023/09/07 09:05:10;;;;;;;0.03;0.00;;;;;;;24.10;69.77;101153.22;4989114;28;20045;-63
2023/09/07 09:07:35;;;;;;;0.10;0.00;;;;;;;23.99;71.11;101152.06;4986503;28;23916;-63
2023/09/07 09:10:08;;;;;;;0.00;0.00;;;;;;;23.91;70.04;101154.16;4985190;28;20038;-62
2023/09/07 09:12:34;;;;;;;0.00;0.00;;;;;;;23.90;71.37;101156.03;4987106;28;20530;-62
2023/09/07 09:15:03;;;;;;;0.15;0.10;;;;;;;23.90;70.85;101156.03;4989794;28;20563;-62
2023/09/07 09:17:29;;;;;;;0.80;0.00;;;;;;;23.93;70.83;101157.44;4987051;28;20038;-62
2023/09/07 09:19:55;;;;;;;0.00;0.00;;;;;;;23.94;70.03;101164.38;4987745;28;20054;-62
2023/09/07 09:22:20;;;;;;;0.08;0.00;;;;;;;23.91;70.14;101156.84;4985315;28;20029;-62
2023/09/07 09:24:49;;;;;;;0.30;0.10;;;;;;;23.86;70.22;101154.81;4988945;28;20037;-62
2023/09/07 09:27:14;;;;;;;0.75;0.00;;;;;;;23.87;70.03;101160.94;4986793;28;20384;-62
2023/09/07 09:29:40;;;;;;;0.10;0.00;;;;;;;23.85;70.05;101158.50;4986980;28;20053;-62
2023/09/07 09:32:13;;;;;;;0.10;0.00;;;;;;;23.85;68.98;101155.84;4986192;28;20022;-62
2023/09/07 09:34:39;;;;;;;0.00;0.00;;;;;;;23.89;70.40;101156.22;4985608;28;20510;-62
2023/09/07 09:37:13;;;;;;;0.28;0.00;;;;;;;23.94;69.13;101157.22;4987320;28;20034;-62
2023/09/07 09:39:39;;;;;;;0.30;0.10;;;;;;;23.96;69.15;101151.69;4986863;28;20041;-62
2023/09/07 09:42:04;;;;;;;0.17;0.00;;;;;;;23.90;69.77;101150.69;4989380;28;20368;-62
2023/09/07 09:44:30;;;;;;;0.00;0.00;;;;;;;23.85;68.93;101155.03;4987817;28;20126;-62
2023/09/07 09:46:57;;;;;;;0.00;0.00;;;;;;;23.78;70.16;101153.22;4988465;28;20053;-62
2023/09/07 09:49:22;;;;;;;0.00;0.00;;;;;;;23.78;69.59;101145.25;4990096;28;20033;-62
2023/09/07 09:51:51;;;;;;;0.00;0.00;;;;;;;23.83;69.20;101150.75;4990132;28;20022;-62
2023/09/07 09:54:21;;;;;;;0.10;0.00;;;;;;;23.84;68.62;101146.22;4989254;28;20037;-62
2023/09/07 09:56:47;;;;;;;0.17;0.00;;;;;;;23.92;69.55;101151.28;4992944;28;20035;-62
2023/09/07 09:59:14;;;;;;;0.10;0.00;;;;;;;23.91;69.22;101146.19;4992798;28;20026;-62
2023/09/07 10:01:50;;;;;;;0.10;0.00;;;;;;;23.90;68.84;101140.06;4992205;28;20031;-62
2023/09/07 10:04:17;;;;;;;0.03;0.00;;;;;;;23.88;69.24;101134.13;4989762;28;20064;-62
2023/09/07 10:06:56;;;;;;;0.10;0.00;;;;;;;23.88;67.31;101139.44;4990031;28;20030;-62
2023/09/07 10:09:21;;;;;;;0.10;0.00;;;;;;;23.89;67.86;101141.09;4989371;28;20034;-61
2023/09/07 10:11:54;;;;;;;0.17;0.00;;;;;;;23.86;66.72;101136.19;4989890;28;20026;-61
2023/09/07 10:14:19;;;;;;;0.10;0.00;;;;;;;23.80;68.35;101137.03;4994219;28;20042;-61
2023/09/07 10:16:51;;;;;;;0.10;0.00;;;;;;;23.87;68.46;101137.81;4991586;28;20031;-61
2023/09/07 10:19:24;;;;;;;0.00;0.00;;;;;;;24.01;68.18;101133.22;4989884;28;20042;-61
2023/09/07 10:21:53;;;;;;;0.00;0.00;;;;;;;24.05;67.14;101119.25;4991857;28;20053;-62
2023/09/07 10:24:28;;;;;;;0.00;0.00;;;;;;;24.07;66.98;101127.84;4990733;28;20030;-61
2023/09/07 10:27:04;;;;;;;0.00;0.00;;;;;;;24.16;59.53;101123.84;4992773;28;20038;-61
2023/09/07 10:29:50;;;;;;;0.10;0.00;;;;;;;24.35;61.31;101129.25;4991789;28;20447;-61
2023/09/07 10:32:16;;;;;;;0.60;0.00;;;;;;;24.29;65.09;101122.97;4991242;28;20026;-61
2023/09/07 10:34:45;;;;;;;0.10;0.00;;;;;;;24.14;65.33;101117.94;4991097;28;20045;-61
2023/09/07 10:37:15;;;;;;;0.00;0.00;;;;;;;24.08;66.22;101112.69;4991981;28;20041;-61
2023/09/07 10:39:44;;;;;;;0.10;0.00;;;;;;;24.09;66.43;101115.13;4991355;28;20495;-61
2023/09/07 10:42:26;;;;;;;0.05;0.00;;;;;;;24.27;62.97;101108.25;4992290;28;20539;-61
2023/09/07 10:44:52;;;;;;;0.65;0.00;;;;;;;24.31;64.99;101117.41;4989339;28;20061;-61
2023/09/07 10:47:17;;;;;;;0.35;0.00;;;;;;;24.23;61.74;101109.69;4988389;28;20035;-61
2023/09/07 10:49:43;;;;;;;0.10;0.08;;;;;;;24.54;55.28;101100.81;4990593;28;20054;-61
2023/09/07 10:52:08;;;;;;;0.08;0.00;;;;;;;24.61;61.63;101107.69;4992077;28;20036;-61
2023/09/07 10:54:35;;;;;;;0.10;0.00;;;;;;;24.51;63.14;101101.25;4989756;28;20034;-61
2023/09/07 10:57:11;;;;;;;0.05;0.00;;;;;;;24.41;62.61;101102.56;4987922;28;20044;-61
2023/09/07 10:59:36;;;;;;;0.17;0.10;;;;;;;24.35;64.85;101107.97;4992375;28;20506;-61
2023/09/07 11:02:05;;;;;;;0.03;0.00;;;;;;;24.45;64.25;101097.63;4990010;28;20026;-61
2023/09/07 11:04:31;;;;;;;0.00;0.00;;;;;;;24.58;63.77;101094.78;4989505;28;20034;-61
2023/09/07 11:06:57;;;;;;;0.00;0.00;;;;;;;24.60;62.42;101095.38;4991137;28;20521;-61
2023/09/07 11:09:23;;;;;;;0.17;0.00;;;;;;;24.74;59.86;101096.88;4990938;28;20030;-61
2023/09/07 11:11:48;;;;;;;0.10;0.00;;;;;;;24.81;62.55;101091.47;4990143;28;20030;-63
2023/09/07 11:14:13;;;;;;;0.00;0.00;;;;;;;24.72;63.57;101088.28;4989573;28;20057;-68
2023/09/07 11:16:40;;;;;;;0.32;0.00;;;;;;;24.60;62.75;101090.06;4985981;28;20035;-68
2023/09/07 11:19:08;;;;;;;0.40;0.00;;;;;;;24.59;63.93;101083.09;4988094;28;20030;-68
2023/09/07 11:21:35;;;;;;;0.00;0.00;;;;;;;24.62;64.85;101081.84;4990254;28;20051;-68